Anatone, WA

8:59 PM PDT on September 23, 2014 (GMT -0700)
Lewiston-Nez Perce County | Change Station
CLOSE
Current Station
Airport
Location: Lewiston,
Elevation: 1437 ft
Nearby Weather Stations

Elev 1437 ft 46.37 °N, 117.02 °W | Updated 1 hour ago

Partly Cloudy
Partly Cloudy
75 °F
Feels Like 75 °F
N
5
Wind Variable Wind from SE

Today
High -- | Low -- °F
--% Chance of Precip.
Yesterday
High -- | Low -- °F
Precip. -- in
6:36 AM 6:43 PM
Waning Crescent, 0% visible
Pressure 29.81 in
Visibility 10.0 miles
Clouds Clear
Dew Point 58 °F
Humidity 55%
Rainfall 0.04 in
Snow Depth 0 in , 0 in , 0 in
UV 0 out of 12
Pollen 6.70 out of 12
Air Quality Not available.
Flu Activity Not available.
METAR KLWS 240256Z 13004KT 10SM CLR 24/14 A2983 RMK AO2 SLP095 T02390144 55001

More Conditions Fewer Conditions

Pressure 29.81 in
Visibility 10.0 miles
Clouds Clear
Dew Point 58 °F
Humidity 55%
Rainfall 0.04 in
Snow Depth 0 in , 0 in , 0 in
UV 0 out of 12
Pollen 6.70 out of 12
Air Quality Not available.
Flu Activity Not available.
METAR KLWS 240256Z 13004KT 10SM CLR 24/14 A2983 RMK AO2 SLP095 T02390144 55001

More Conditions Fewer Conditions

10-Day Weather Forecast

Almanac

Astronomy

Sep. 23, 2014 Rise Set
Actual Time 6:36 AM PDT 6:43 PM PDT
Civil Twilight 6:06 AM PDT 7:13 PM PDT
Nautical Twilight 5:31 AM PDT 7:48 PM PDT
Astronomical Twilight 4:55 AM PDT 8:24 PM PDT
Moon 6:04 AM PDT (9/23) 6:23 PM PDT (9/23)
Length of Visible Light 13h 06m
Length of Day
12h 07m
Tomorrow will be 3m 15s shorter.
Waning Crescent, 0% of the Moon is Illuminated
Today
Waning Crescent
Sep 24
New
Oct 1
First Quarter
Oct 8
Full
Oct 15
Last Quarter

Today's Extremes

State Highs State Lows

Community

WunderPhotos

Upload Photos

1,755,878 photos uploaded!

WunderBlogs® & News

Nearby

Snow Depth

Station Depth Elevation
Morse Lake 0 in 5400 ft
Sasse Ridge 0 in 4200 ft
Potato Hill 0 in 4500 ft
Rainy Pass 0 in 4780 ft
Surprise Lakes 0 in 4250 ft

Earthquake Activity

City Distance Mag. Time & Date
No recent earthquake activity has been reported nearby.
Minimum magnitude displayed is 2.5.

Coastal Water Temperatures

Place Temperature
No Stations Reporting

Nearby Weather Stations